Time;durP1;ratioP1;P1;durP2;ratioP2;P2;SDS_P1;SDS_P2;PMS_P1;PMS_P2;Temp;Humidity;BMP_temperature;BMP_pressure;BME280_temperature;BME280_humidity;BME280_pressure;Samples;Min_cycle;Max_cycle;Signal;HPM_P1;HPM_P2
2021/07/27 00:07:40;;;;;;;2.92;1.77;;;22.90;64.90;;;;;;21049092;28;20043;-19
2021/07/27 00:17:40;;;;;;;2.60;1.70;;;23.00;65.00;;;;;;21061758;28;20039;-19
2021/07/27 00:27:44;;;;;;;5.18;2.15;;;22.90;64.90;;;;;;21069242;28;20031;-20
2021/07/27 00:37:47;;;;;;;3.88;1.88;;;22.90;65.00;;;;;;21063927;28;20536;-19
2021/07/27 00:47:48;;;;;;;3.15;2.28;;;22.90;65.00;;;;;;21060184;28;20028;-19
2021/07/27 00:57:51;;;;;;;2.80;1.92;;;22.90;64.70;;;;;;21076340;28;20028;-20
2021/07/27 01:07:51;;;;;;;1.85;1.35;;;22.80;64.90;;;;;;21079686;28;20040;-19
2021/07/27 01:17:59;;;;;;;3.20;1.77;;;22.90;64.90;;;;;;21101311;28;20035;-20
2021/07/27 01:48:26;;;;;;;5.50;1.73;;;22.70;64.50;;;;;;21076643;28;20040;-20
2021/07/27 01:58:27;;;;;;;3.97;2.55;;;22.70;64.40;;;;;;21073724;28;20559;-20
2021/07/27 02:08:28;;;;;;;4.38;2.05;;;22.70;64.30;;;;;;21074759;28;20066;-20
2021/07/27 02:18:28;;;;;;;6.63;2.50;;;22.70;64.70;;;;;;21073703;28;20028;-20
2021/07/27 02:28:33;;;;;;;3.90;2.65;;;22.70;64.40;;;;;;21072326;28;20457;-19
2021/07/27 02:38:33;;;;;;;3.78;1.88;;;22.70;64.00;;;;;;21072219;28;20023;-19
2021/07/27 02:48:34;;;;;;;6.10;1.83;;;22.60;63.90;;;;;;21070101;28;20506;-19
2021/07/27 02:58:34;;;;;;;4.03;2.20;;;22.60;63.70;;;;;;21056575;28;20051;-18
2021/07/27 03:18:56;;;;;;;4.63;1.80;;;22.60;63.80;;;;;;21072621;28;20483;-19
2021/07/27 03:28:56;;;;;;;3.55;1.77;;;22.60;63.70;;;;;;21064335;28;20036;-20
2021/07/27 03:38:57;;;;;;;3.15;2.30;;;22.60;63.60;;;;;;21064819;28;20402;-19
2021/07/27 03:48:57;;;;;;;3.05;1.95;;;22.60;63.70;;;;;;21080263;28;20506;-19
2021/07/27 03:58:58;;;;;;;8.23;2.85;;;22.60;63.70;;;;;;21081702;28;20020;-19
2021/07/27 04:08:58;;;;;;;3.88;2.20;;;22.60;63.70;;;;;;21058903;22;20044;-20
2021/07/27 04:18:59;;;;;;;4.57;2.20;;;22.50;63.60;;;;;;21017444;28;20479;-20
2021/07/27 04:28:59;;;;;;;3.03;1.92;;;22.60;63.80;;;;;;21004842;28;20373;-20
2021/07/27 04:39:00;;;;;;;3.45;2.53;;;22.60;63.60;;;;;;21009851;28;20028;-21
2021/07/27 04:49:00;;;;;;;6.35;2.80;;;22.60;63.60;;;;;;20996471;28;20032;-20
2021/07/27 04:59:01;;;;;;;6.32;2.80;;;22.50;63.60;;;;;;20995147;28;20040;-20
2021/07/27 05:09:01;;;;;;;9.35;3.08;;;22.50;63.50;;;;;;20994106;28;20027;-20
2021/07/27 05:19:02;;;;;;;7.23;3.20;;;22.50;63.50;;;;;;21006423;28;20032;-19
2021/07/27 05:29:02;;;;;;;7.80;4.20;;;22.50;63.50;;;;;;20993238;28;20056;-20
2021/07/27 05:39:03;;;;;;;4.47;2.53;;;22.50;63.60;;;;;;20993194;28;20435;-20
2021/07/27 05:49:08;;;;;;;6.40;2.63;;;22.50;63.70;;;;;;20992290;28;20036;-20
2021/07/27 05:59:09;;;;;;;36.83;10.38;;;22.60;63.70;;;;;;20992158;28;20492;-20
2021/07/27 06:09:13;;;;;;;14.02;5.35;;;22.50;63.80;;;;;;20988962;28;20052;-21
2021/07/27 06:19:14;;;;;;;9.00;5.05;;;22.50;63.70;;;;;;20996880;28;20036;-20
2021/07/27 06:29:14;;;;;;;11.65;5.57;;;22.40;63.70;;;;;;21014057;28;20106;-20
2021/07/27 06:39:17;;;;;;;10.95;5.25;;;22.50;63.70;;;;;;21008523;28;20082;-21
2021/07/27 06:49:17;;;;;;;9.05;6.25;;;22.50;63.70;;;;;;20994781;28;20033;-20
2021/07/27 06:59:18;;;;;;;12.52;6.32;;;22.50;63.90;;;;;;21003448;28;20028;-20
2021/07/27 07:09:18;;;;;;;6.35;5.75;;;22.60;63.80;;;;;;21006235;28;20025;-21
2021/07/27 07:19:19;;;;;;;8.85;5.63;;;22.60;63.50;;;;;;21006419;28;20102;-20
2021/07/27 07:29:21;;;;;;;18.38;7.32;;;22.50;63.40;;;;;;20978668;28;20412;-20
2021/07/27 07:39:21;;;;;;;14.02;6.93;;;22.60;63.70;;;;;;20988155;28;20033;-20
2021/07/27 07:49:22;;;;;;;25.70;8.50;;;22.60;63.70;;;;;;21005855;28;20415;-21
2021/07/27 07:59:22;;;;;;;14.70;6.20;;;22.70;63.00;;;;;;21007329;28;20067;-19
2021/07/27 08:09:23;;;;;;;13.65;5.65;;;22.70;62.40;;;;;;20995678;28;20037;-19
2021/07/27 08:19:23;;;;;;;18.63;5.53;;;22.70;62.80;;;;;;21003231;28;20028;-20
2021/07/27 08:29:24;;;;;;;8.63;6.22;;;22.70;63.00;;;;;;21020766;28;20036;-20
2021/07/27 08:39:24;;;;;;;11.23;6.88;;;22.70;63.20;;;;;;21033687;28;20028;-20
2021/07/27 08:49:25;;;;;;;19.23;7.72;;;22.70;62.40;;;;;;21033424;28;20698;-21
2021/07/27 08:59:26;;;;;;;18.33;7.88;;;22.70;62.40;;;;;;21036152;28;20036;-20
2021/07/27 09:09:38;;;;;;;14.32;6.72;;;22.80;62.70;;;;;;20989248;28;20036;-20
2021/07/27 09:19:40;;;;;;;18.45;6.93;;;22.90;62.90;;;;;;21003189;28;20024;-19
2021/07/27 09:29:46;;;;;;;15.65;6.85;;;23.00;63.30;;;;;;20994401;28;20097;-19
2021/07/27 09:39:47;;;;;;;15.05;7.78;;;23.00;63.40;;;;;;20992058;28;20036;-19
2021/07/27 09:49:48;;;;;;;23.67;7.68;;;23.00;63.60;;;;;;20993819;28;20025;-20
2021/07/27 09:59:49;;;;;;;18.20;7.82;;;23.00;63.90;;;;;;20994752;28;20024;-19
2021/07/27 10:09:50;;;;;;;13.27;6.25;;;23.10;64.00;;;;;;20976632;28;20449;-21
2021/07/27 10:19:51;;;;;;;20.02;7.57;;;23.00;63.70;;;;;;20983396;28;20062;-21
2021/07/27 10:29:52;;;;;;;13.75;5.78;;;23.10;63.70;;;;;;20994738;28;20110;-20
2021/07/27 10:39:57;;;;;;;18.10;8.00;;;23.10;63.60;;;;;;20989420;28;20558;-20
2021/07/27 10:49:59;;;;;;;15.13;6.82;;;23.20;64.20;;;;;;20985900;28;20123;-20
2021/07/27 10:59:59;;;;;;;16.05;6.68;;;23.20;63.80;;;;;;20990236;28;20029;-20
2021/07/27 11:10:01;;;;;;;11.63;6.38;;;23.20;63.70;;;;;;20986056;28;20440;-21
2021/07/27 11:20:04;;;;;;;10.45;6.45;;;23.30;63.70;;;;;;20988596;28;20039;-20
2021/07/27 11:30:09;;;;;;;14.27;7.10;;;23.30;63.80;;;;;;20983808;28;20032;-20
2021/07/27 11:40:25;;;;;;;9.50;7.57;;;23.30;63.80;;;;;;20984191;28;20032;-20
2021/07/27 11:50:28;;;;;;;9.48;7.03;;;23.30;63.70;;;;;;20982648;28;20025;-20
2021/07/27 12:00:31;;;;;;;8.38;6.90;;;23.30;63.60;;;;;;20983053;28;20019;-21
2021/07/27 12:10:31;;;;;;;8.82;7.13;;;23.30;63.50;;;;;;20999385;28;20120;-20
2021/07/27 12:20:32;;;;;;;7.60;6.73;;;23.40;63.50;;;;;;20996191;28;20112;-20
2021/07/27 12:30:32;;;;;;;8.40;6.32;;;23.40;63.50;;;;;;20996011;28;20536;-20
2021/07/27 12:40:33;;;;;;;12.35;6.80;;;23.40;63.30;;;;;;20996880;28;20035;-20
2021/07/27 12:50:34;;;;;;;12.48;7.47;;;23.40;63.30;;;;;;20994936;28;20071;-20
2021/07/27 13:00:34;;;;;;;7.82;7.03;;;23.40;63.20;;;;;;20995725;28;20036;-20
2021/07/27 13:10:35;;;;;;;11.38;7.22;;;23.40;63.20;;;;;;20994490;28;20107;-19
2021/07/27 13:20:35;;;;;;;10.07;7.10;;;23.40;63.20;;;;;;21004435;28;20109;-20
2021/07/27 13:30:36;;;;;;;12.65;7.55;;;23.40;63.10;;;;;;20990524;28;20564;-19
2021/07/27 13:40:37;;;;;;;6.78;6.07;;;23.50;62.90;;;;;;20991102;28;20040;-20
2021/07/27 13:50:37;;;;;;;14.33;6.77;;;23.50;62.90;;;;;;20989888;28;20040;-19
2021/07/27 14:00:38;;;;;;;10.60;7.13;;;23.50;62.80;;;;;;20989153;28;20512;-19
2021/07/27 14:10:38;;;;;;;8.65;7.28;;;23.50;62.70;;;;;;20987307;28;20033;-19
2021/07/27 14:20:39;;;;;;;8.95;7.53;;;23.50;62.60;;;;;;20986658;28;20052;-19
2021/07/27 14:30:40;;;;;;;8.32;6.88;;;23.50;62.70;;;;;;20985711;28;20190;-19
2021/07/27 14:40:40;;;;;;;9.73;7.38;;;23.50;62.60;;;;;;20986681;28;20076;-19
2021/07/27 14:50:41;;;;;;;8.88;7.10;;;23.60;62.60;;;;;;20985898;28;20024;-19
2021/07/27 15:00:41;;;;;;;9.13;7.15;;;23.60;62.60;;;;;;20982715;28;20043;-19
2021/07/27 15:10:42;;;;;;;8.43;6.35;;;23.50;62.50;;;;;;20984613;28;20108;-20
2021/07/27 15:20:43;;;;;;;11.00;7.20;;;23.60;62.60;;;;;;20982021;28;20048;-20
2021/07/27 15:30:46;;;;;;;9.73;7.03;;;23.50;62.40;;;;;;20981517;28;20423;-20
2021/07/27 15:40:47;;;;;;;12.05;7.68;;;23.50;62.40;;;;;;20982341;28;20050;-20
2021/07/27 15:50:47;;;;;;;10.02;7.10;;;23.60;62.50;;;;;;20980984;28;20064;-20
2021/07/27 16:00:48;;;;;;;13.95;7.53;;;23.60;62.30;;;;;;20980746;28;20041;-19
2021/07/27 16:10:49;;;;;;;9.40;6.75;;;23.70;62.40;;;;;;20978683;28;20032;-19
2021/07/27 16:20:49;;;;;;;8.25;6.55;;;23.70;62.70;;;;;;20981522;28;20089;-19
2021/07/27 16:30:50;;;;;;;15.45;7.05;;;23.70;62.60;;;;;;20985709;28;20476;-20
2021/07/27 16:40:51;;;;;;;8.80;6.57;;;23.60;63.40;;;;;;20988426;28;20028;-20
2021/07/27 16:50:51;;;;;;;8.38;7.57;;;23.70;63.80;;;;;;20985536;28;20926;-20
2021/07/27 17:00:52;;;;;;;11.43;6.97;;;23.60;64.20;;;;;;20993830;28;20052;-21
2021/07/27 17:10:52;;;;;;;9.02;6.88;;;23.60;64.60;;;;;;20992385;28;20060;-20
2021/07/27 17:20:53;;;;;;;10.52;6.53;;;23.50;65.00;;;;;;20992480;28;20033;-21
2021/07/27 17:30:53;;;;;;;9.73;5.68;;;23.50;65.40;;;;;;20990061;28;20032;-20
2021/07/27 17:40:54;;;;;;;10.27;6.50;;;23.50;65.90;;;;;;20971969;28;20040;-20
2021/07/27 17:50:56;;;;;;;10.95;5.70;;;23.40;66.10;;;;;;20990286;28;20102;-20
2021/07/27 18:00:56;;;;;;;9.23;5.50;;;23.50;67.20;;;;;;20988029;28;20139;-20
2021/07/27 18:10:57;;;;;;;7.80;5.55;;;23.50;67.30;;;;;;20989011;28;20063;-20
2021/07/27 18:20:57;;;;;;;9.18;6.35;;;23.50;67.20;;;;;;20985689;28;20052;-20
2021/07/27 18:30:58;;;;;;;7.47;5.50;;;23.40;67.10;;;;;;20985447;28;20063;-20
2021/07/27 18:40:58;;;;;;;5.35;4.65;;;23.40;67.50;;;;;;20984807;28;20027;-20
2021/07/27 18:50:59;;;;;;;12.00;4.97;;;23.40;67.80;;;;;;20984601;28;20036;-21
2021/07/27 19:01:00;;;;;;;15.30;6.00;;;23.40;67.90;;;;;;20986125;28;20032;-21
2021/07/27 19:11:00;;;;;;;10.35;4.72;;;23.40;67.60;;;;;;20985465;28;20503;-21
2021/07/27 19:21:02;;;;;;;6.13;3.97;;;23.40;67.10;;;;;;20985386;28;20107;-20
2021/07/27 19:31:03;;;;;;;8.45;3.97;;;23.30;67.20;;;;;;20984709;28;20052;-20
2021/07/27 19:41:05;;;;;;;9.45;4.85;;;23.30;68.30;;;;;;20924027;28;20051;-21
2021/07/27 19:51:06;;;;;;;12.27;4.35;;;23.30;69.10;;;;;;20896190;28;20021;-21
2021/07/27 20:01:09;;;;;;;7.78;4.68;;;23.30;69.10;;;;;;20897881;28;20036;-21
2021/07/27 20:11:10;;;;;;;7.78;5.00;;;23.30;69.30;;;;;;20896833;28;20033;-21
2021/07/27 20:21:11;;;;;;;8.82;4.85;;;23.30;69.20;;;;;;20897244;28;20027;-20
2021/07/27 20:31:11;;;;;;;13.67;5.03;;;23.30;69.20;;;;;;20908544;28;20025;-20
2021/07/27 20:41:12;;;;;;;7.63;4.55;;;23.30;69.50;;;;;;20912755;28;20028;-21
2021/07/27 20:51:15;;;;;;;6.07;4.22;;;23.30;69.30;;;;;;20910365;28;20112;-20
2021/07/27 21:01:16;;;;;;;7.10;5.43;;;23.30;69.00;;;;;;20908431;28;20672;-21
2021/07/27 21:11:16;;;;;;;5.22;4.07;;;23.30;69.20;;;;;;20925221;28;20056;-20
2021/07/27 21:21:18;;;;;;;6.65;4.43;;;23.30;68.90;;;;;;20950028;28;20031;-21
2021/07/27 21:31:18;;;;;;;7.07;3.90;;;23.30;68.50;;;;;;20933720;28;20021;-20
2021/07/27 21:41:19;;;;;;;5.93;3.77;;;23.20;68.20;;;;;;20992742;28;20039;-20
2021/07/27 21:51:19;;;;;;;5.32;3.67;;;23.20;67.50;;;;;;20992465;28;20454;-20
2021/07/27 22:01:20;;;;;;;4.93;3.67;;;23.10;67.10;;;;;;20991162;28;20082;-20
2021/07/27 22:11:21;;;;;;;4.88;3.65;;;23.10;66.90;;;;;;20989917;28;20020;-20
2021/07/27 22:21:22;;;;;;;5.82;3.75;;;23.10;66.60;;;;;;20993597;28;20080;-21
2021/07/27 22:31:22;;;;;;;5.95;4.03;;;23.10;66.50;;;;;;20990517;28;20025;-21
2021/07/27 22:41:24;;;;;;;5.43;3.17;;;23.00;66.40;;;;;;20986626;28;20031;-21
2021/07/27 22:51:24;;;;;;;5.90;4.25;;;23.00;66.40;;;;;;20986695;28;20024;-21
2021/07/27 23:01:25;;;;;;;5.70;3.60;;;23.00;66.40;;;;;;20986335;28;20090;-20
2021/07/27 23:11:25;;;;;;;5.35;3.50;;;23.00;66.20;;;;;;20986132;28;20064;-20
2021/07/27 23:21:26;;;;;;;5.60;3.63;;;22.90;66.20;;;;;;20985455;28;20063;-20
2021/07/27 23:31:26;;;;;;;3.85;2.80;;;23.00;66.10;;;;;;20984458;28;20393;-20
2021/07/27 23:41:27;;;;;;;4.47;3.17;;;22.90;66.10;;;;;;20984439;28;20166;-20
2021/07/27 23:51:27;;;;;;;8.95;3.83;;;22.90;65.90;;;;;;20983990;28;20032;-20
